EDT,Max TemperatureF,Mean TemperatureF,Min TemperatureF,Max Dew PointF,MeanDew PointF,Min DewpointF,Max Humidity, Mean Humidity, Min Humidity, Max Sea Level PressureIn, Mean Sea Level PressureIn, Min Sea Level PressureIn, Max VisibilityMiles, Mean VisibilityMiles, Min VisibilityMiles, Max Wind SpeedMPH, Mean Wind SpeedMPH, Max Gust SpeedMPH,PrecipitationIn, CloudCover, Events, WindDirDegrees
2014-3-1,80,68,56,61,56,53,93,68,42,30.16,30.11,30.05,10,10,10,17,9,23,0.00,1,,9
2014-3-2,79,69,59,60,58,56,90,68,45,30.20,30.13,30.08,10,10,10,16,7,23,0.00,2,,111
2014-3-3,82,72,61,62,60,58,93,71,48,30.09,30.03,29.98,10,10,10,18,7,23,0.00,1,,181
2014-3-4,80,70,60,64,62,59,97,78,58,30.07,30.02,29.98,10,10,10,14,7,18,0.00,1,,75
2014-3-5,84,74,63,67,65,62,93,74,54,30.04,29.98,29.92,10,10,10,22,7,27,0.06,4,,151
2014-3-6,82,74,66,72,67,64,97,81,65,29.99,29.87,29.78,10,9,1,35,9,46,0.20,7,Rain-Thunderstorm,212
2014-3-7,78,68,58,66,59,50,90,69,47,30.02,29.87,29.78,10,10,10,30,14,37,0.00,4,,273
2014-3-8,74,63,51,59,52,45,90,70,49,30.14,30.08,30.02,10,10,10,16,7,21,0.00,3,,343
2014-3-9,78,69,59,62,60,58,97,76,54,30.17,30.12,30.09,10,10,9,13,6,17,0.00,2,Fog,31
2014-3-10,82,72,61,62,60,57,93,69,45,30.12,30.05,29.97,10,10,10,16,7,23,0.00,3,,238
2014-3-11,81,71,60,65,61,56,84,69,54,30.01,29.94,29.86,10,10,10,21,9,25,0.00,2,,203
2014-3-12,86,78,70,69,66,62,90,71,51,29.88,29.83,29.74,10,10,6,25,12,32,0.18,5,Rain,229
2014-3-13,73,67,62,67,53,40,84,61,39,30.17,30.00,29.85,10,10,10,18,13,24,0.00,4,,338
2014-3-14,74,66,57,56,50,43,72,58,44,30.26,30.20,30.15,10,10,10,21,12,26,0.00,4,,64
2014-3-15,80,72,63,60,56,54,66,54,42,30.16,30.10,30.05,10,10,10,17,10,24,T,4,,116
2014-3-16,83,77,70,65,61,57,73,62,50,30.04,29.93,29.83,10,10,10,26,14,35,0.00,4,,153
2014-3-17,85,79,73,72,68,64,84,70,55,29.84,29.78,29.73,10,10,10,22,13,27,T,6,,174
2014-3-18,79,72,64,70,63,52,93,67,40,30.01,29.85,29.68,10,9,4,35,12,46,0.22,6,Rain,270
2014-3-19,80,71,62,61,59,58,90,71,52,30.07,30.03,29.98,10,10,10,14,6,18,0.00,4,,72
2014-3-20,82,73,64,67,64,61,87,75,62,30.05,30.01,29.96,10,10,10,17,7,22,T,4,,121
2014-3-21,83,73,63,68,65,61,93,78,62,30.06,30.02,29.96,10,10,10,21,11,27,0.00,3,,118
2014-3-22,81,76,71,71,68,64,90,79,67,30.08,30.03,29.97,10,10,7,22,12,28,0.04,5,Rain,162
2014-3-23,89,77,65,70,65,60,93,68,43,30.06,30.01,29.94,10,10,10,18,6,23,0.00,3,,252
2014-3-24,73,69,65,69,66,63,93,83,73,30.04,29.98,29.91,10,8,2,16,7,19,0.68,7,Rain,295
2014-3-25,81,71,61,67,63,49,100,79,58,30.01,29.89,29.83,10,10,1,25,14,30,0.33,6,Rain,258
2014-3-26,67,60,53,51,45,35,80,62,44,30.26,30.17,30.02,10,10,10,22,14,30,0.00,3,,345
2014-3-27,76,67,57,60,54,49,80,63,46,30.31,30.24,30.19,10,10,10,26,16,33,0.00,6,,95
2014-3-28,83,78,73,68,62,56,79,65,51,30.19,30.13,30.06,10,10,10,26,17,38,0.00,6,,135
2014-3-29,83,76,69,72,69,63,84,77,69,30.07,29.99,29.91,10,9,1,29,12,35,0.69,7,Rain-Thunderstorm,192
2014-3-30,79,70,61,66,54,35,93,58,22,30.07,29.98,29.90,10,10,10,20,9,24,0.00,5,,289
2014-3-31,77,67,56,61,55,48,83,65,46,30.14,30.10,30.06,10,10,10,15,7,19,0.00,6,,357